»·PEaware :: N260MA KOKB-KPSP

N260MA :: KOKB-KPSP

FLIGHT INFORMATION

Flight Status: Arrived
Operator: Privately registered:
United States
More flights under this callsign
Pilot: Anonymous 30260 (30260)
Aircraft: AERMACCHI WARRIOR
(F260)
More flights by this aircraft type
Origin: KOKB Oceanside Mun
United States
Destination: KPSP Palm Springs Intl
United States
More flights between these airports :: More routes between these airports
Route: OCN V208 TRM
File this flight plan on PilotEdge
Remarks:
Altitude:
(Current/Filed)
9,000ft
Speed:
(Current/Filed)
168kts
Departed: 09-Jan-21 01:12 PM
Arrived: 09-Jan-21 01:54 PM
Distance/Time
Traveled:
56nm/0:41
Distance/Time
To Go:
Arrived

Flight Plot

Page will automatically refresh every two minutes.

Flight plan parsing failed; only flown route is shown


Map Options




Map Legend


Flown Route
Filed Route
Departure Airport
Arrival Airport
Navaid (VOR, NDB)
Fix

Horizontal Profiles

Position Reports

Time Latitude Longitude Heading Altitude Ground
Speed
09-Jan-21 12:57 33.217367 -117.351637 78 30ft 0kts
09-Jan-21 12:58 33.217367 -117.351637 78 30ft 0kts
09-Jan-21 12:59 33.217367 -117.351637 78 30ft 0kts
09-Jan-21 13:00 33.217367 -117.351637 78 30ft 0kts
09-Jan-21 13:01 33.217367 -117.351637 78 30ft 0kts
09-Jan-21 13:02 33.217367 -117.351637 78 30ft 0kts
09-Jan-21 13:03 33.217367 -117.351637 78 30ft 0kts
09-Jan-21 13:04 33.217367 -117.351637 78 30ft 0kts
09-Jan-21 13:05 33.217769 -117.351261 79 30ft 8kts
09-Jan-21 13:06 33.218100 -117.348820 54 30ft 0kts
09-Jan-21 13:07 33.217926 -117.348414 45 30ft 0kts
09-Jan-21 13:08 33.217926 -117.348414 45 30ft 0kts
09-Jan-21 13:09 33.218236 -117.347527 69 30ft 0kts
09-Jan-21 13:10 33.218556 -117.347228 335 30ft 4kts
09-Jan-21 13:11 33.215683 -117.370825 263 730ft 101kts
09-Jan-21 13:12 33.219974 -117.405779 289 2553ft 101kts
09-Jan-21 13:13 33.236967 -117.396452 93 4293ft 108kts
09-Jan-21 13:14 33.233068 -117.356854 95 5772ft 116kts
09-Jan-21 13:15 33.228458 -117.313563 94 6953ft 129kts
09-Jan-21 13:16 33.222112 -117.267474 91 8006ft 133kts
09-Jan-21 13:17 33.216323 -117.218752 94 8937ft 139kts
09-Jan-21 13:18 33.210202 -117.160633 92 9042ft 175kts
09-Jan-21 13:19 33.204593 -117.094294 92 8994ft 187kts
09-Jan-21 13:20 33.199075 -117.058349 105 8995ft 190kts
09-Jan-21 13:21 33.190440 -116.994570 95 8994ft 192kts
09-Jan-21 13:22 33.181803 -116.923091 96 8992ft 193kts
09-Jan-21 13:23 33.173702 -116.856486 90 8993ft 171kts
09-Jan-21 13:24 33.166223 -116.794970 90 8994ft 168kts
09-Jan-21 13:25 33.158794 -116.733908 90 8995ft 168kts
09-Jan-21 13:26 33.151032 -116.672349 90 8997ft 168kts
09-Jan-21 13:27 33.144601 -116.610978 91 9003ft 168kts
09-Jan-21 13:28 33.165239 -116.563427 26 8941ft 166kts
09-Jan-21 13:29 33.206639 -116.521259 28 8958ft 181kts
09-Jan-21 13:30 33.250551 -116.481554 28 8940ft 177kts
09-Jan-21 13:31 33.294467 -116.446073 24 8957ft 169kts
09-Jan-21 13:32 33.337517 -116.412001 24 8966ft 166kts
09-Jan-21 13:33 33.380178 -116.378438 24 8967ft 165kts
09-Jan-21 13:34 33.422504 -116.344482 27 8964ft 165kts
09-Jan-21 13:35 33.463183 -116.307830 29 8964ft 166kts
09-Jan-21 13:36 33.503607 -116.270457 29 8964ft 166kts
09-Jan-21 13:37 33.544490 -116.232657 29 8963ft 166kts
09-Jan-21 13:38 33.586447 -116.193182 30 8714ft 176kts
09-Jan-21 13:39 33.614786 -116.137037 93 7854ft 209kts
09-Jan-21 13:40 33.602939 -116.061583 100 5388ft 205kts
09-Jan-21 13:41 33.617269 -116.019039 304 3888ft 174kts
09-Jan-21 13:42 33.641517 -116.069241 300 4004ft 160kts
09-Jan-21 13:43 33.664132 -116.116044 301 4002ft 161kts
09-Jan-21 13:44 33.687942 -116.166201 296 4003ft 162kts
09-Jan-21 13:45 33.698010 -116.192588 295 4005ft 162kts
09-Jan-21 13:46 33.717192 -116.260422 289 3941ft 167kts
09-Jan-21 13:47 33.728726 -116.320136 285 3619ft 172kts
09-Jan-21 13:48 33.739726 -116.382094 287 3166ft 177kts
09-Jan-21 13:49 33.755225 -116.442883 312 2654ft 177kts
09-Jan-21 13:51 33.785616 -116.469780 330 1961ft 86kts
09-Jan-21 13:52 33.806495 -116.487330 327 873ft 85kts
09-Jan-21 13:53 33.824660 -116.503201 328 410ft 54kts
09-Jan-21 13:54 33.827796 -116.507194 180 420ft 0kts
09-Jan-21 13:55 33.826525 -116.506943 148 417ft 11kts
09-Jan-21 13:56 33.825838 -116.508283 274 418ft 0kts

Navigation Log

Ident Type
Flight plan parsing failed, navigation log unavailable